sensor_id;sensor_type;location;lat;lon;timestamp;P1;durP1;ratioP1;P2;durP2;ratioP2
12784;SDS011;6456;42.680;23.260;2023-06-14T00:00:47;4.73;;;4.30;;
12784;SDS011;6456;42.680;23.260;2023-06-14T00:03:14;4.90;;;4.23;;
12784;SDS011;6456;42.680;23.260;2023-06-14T00:05:42;5.10;;;4.57;;
12784;SDS011;6456;42.680;23.260;2023-06-14T00:08:11;5.40;;;4.83;;
12784;SDS011;6456;42.680;23.260;2023-06-14T00:10:41;6.47;;;5.83;;
12784;SDS011;6456;42.680;23.260;2023-06-14T00:13:10;7.80;;;5.13;;
12784;SDS011;6456;42.680;23.260;2023-06-14T00:15:37;6.07;;;5.47;;
12784;SDS011;6456;42.680;23.260;2023-06-14T00:18:05;6.07;;;5.57;;
12784;SDS011;6456;42.680;23.260;2023-06-14T00:20:32;6.87;;;6.17;;
12784;SDS011;6456;42.680;23.260;2023-06-14T00:23:00;6.23;;;5.73;;
12784;SDS011;6456;42.680;23.260;2023-06-14T00:25:27;6.60;;;5.80;;
12784;SDS011;6456;42.680;23.260;2023-06-14T00:27:55;6.80;;;6.10;;
12784;SDS011;6456;42.680;23.260;2023-06-14T00:30:24;6.37;;;5.87;;
12784;SDS011;6456;42.680;23.260;2023-06-14T00:32:55;5.80;;;5.30;;
12784;SDS011;6456;42.680;23.260;2023-06-14T00:35:23;5.77;;;5.20;;
12784;SDS011;6456;42.680;23.260;2023-06-14T00:37:51;5.80;;;5.30;;
12784;SDS011;6456;42.680;23.260;2023-06-14T00:40:19;5.87;;;5.30;;
12784;SDS011;6456;42.680;23.260;2023-06-14T00:42:46;4.83;;;4.43;;
12784;SDS011;6456;42.680;23.260;2023-06-14T00:45:13;5.07;;;4.27;;
12784;SDS011;6456;42.680;23.260;2023-06-14T00:47:42;4.53;;;4.13;;
12784;SDS011;6456;42.680;23.260;2023-06-14T00:50:12;4.40;;;4.00;;
12784;SDS011;6456;42.680;23.260;2023-06-14T00:52:39;4.23;;;3.83;;
12784;SDS011;6456;42.680;23.260;2023-06-14T00:55:06;4.70;;;4.27;;
12784;SDS011;6456;42.680;23.260;2023-06-14T00:57:34;5.23;;;4.07;;
12784;SDS011;6456;42.680;23.260;2023-06-14T01:00:03;4.10;;;3.80;;
12784;SDS011;6456;42.680;23.260;2023-06-14T01:02:34;4.23;;;3.67;;
12784;SDS011;6456;42.680;23.260;2023-06-14T01:05:04;6.83;;;4.63;;
12784;SDS011;6456;42.680;23.260;2023-06-14T01:07:33;4.00;;;3.70;;
12784;SDS011;6456;42.680;23.260;2023-06-14T01:10:13;4.00;;;3.70;;
12784;SDS011;6456;42.680;23.260;2023-06-14T01:12:52;4.10;;;3.73;;
12784;SDS011;6456;42.680;23.260;2023-06-14T01:15:25;6.27;;;4.20;;
12784;SDS011;6456;42.680;23.260;2023-06-14T01:17:53;6.03;;;3.97;;
12784;SDS011;6456;42.680;23.260;2023-06-14T01:20:29;4.53;;;4.17;;
12784;SDS011;6456;42.680;23.260;2023-06-14T01:22:59;5.03;;;4.63;;
12784;SDS011;6456;42.680;23.260;2023-06-14T01:25:26;5.40;;;4.90;;
12784;SDS011;6456;42.680;23.260;2023-06-14T01:27:55;23.27;;;20.80;;
12784;SDS011;6456;42.680;23.260;2023-06-14T01:30:24;18.23;;;16.43;;
12784;SDS011;6456;42.680;23.260;2023-06-14T01:32:52;12.13;;;10.97;;
12784;SDS011;6456;42.680;23.260;2023-06-14T01:35:20;8.10;;;6.23;;
12784;SDS011;6456;42.680;23.260;2023-06-14T01:37:48;7.03;;;6.43;;
12784;SDS011;6456;42.680;23.260;2023-06-14T01:40:18;6.70;;;6.00;;
12784;SDS011;6456;42.680;23.260;2023-06-14T01:42:47;6.13;;;5.63;;
12784;SDS011;6456;42.680;23.260;2023-06-14T01:45:16;6.57;;;5.90;;
12784;SDS011;6456;42.680;23.260;2023-06-14T01:47:43;10.90;;;9.40;;
12784;SDS011;6456;42.680;23.260;2023-06-14T01:50:11;6.87;;;5.87;;
12784;SDS011;6456;42.680;23.260;2023-06-14T01:52:39;7.53;;;6.60;;
12784;SDS011;6456;42.680;23.260;2023-06-14T01:55:06;5.83;;;5.33;;
12784;SDS011;6456;42.680;23.260;2023-06-14T01:57:35;7.70;;;5.37;;
12784;SDS011;6456;42.680;23.260;2023-06-14T02:00:02;5.30;;;4.80;;
12784;SDS011;6456;42.680;23.260;2023-06-14T02:02:33;5.73;;;5.23;;
12784;SDS011;6456;42.680;23.260;2023-06-14T02:05:00;6.17;;;5.60;;
12784;SDS011;6456;42.680;23.260;2023-06-14T02:07:27;5.97;;;5.37;;
12784;SDS011;6456;42.680;23.260;2023-06-14T02:09:54;6.00;;;5.50;;
12784;SDS011;6456;42.680;23.260;2023-06-14T02:12:21;5.57;;;5.07;;
12784;SDS011;6456;42.680;23.260;2023-06-14T02:14:49;6.37;;;5.10;;
12784;SDS011;6456;42.680;23.260;2023-06-14T02:17:16;6.10;;;5.10;;
12784;SDS011;6456;42.680;23.260;2023-06-14T02:19:43;5.23;;;4.83;;
12784;SDS011;6456;42.680;23.260;2023-06-14T02:22:10;5.17;;;4.77;;
12784;SDS011;6456;42.680;23.260;2023-06-14T02:24:37;5.20;;;4.70;;
12784;SDS011;6456;42.680;23.260;2023-06-14T02:27:04;5.13;;;4.73;;
12784;SDS011;6456;42.680;23.260;2023-06-14T02:29:31;7.00;;;4.47;;
12784;SDS011;6456;42.680;23.260;2023-06-14T02:32:00;4.77;;;4.30;;
12784;SDS011;6456;42.680;23.260;2023-06-14T02:34:26;4.80;;;4.40;;
12784;SDS011;6456;42.680;23.260;2023-06-14T02:36:53;4.63;;;4.20;;
12784;SDS011;6456;42.680;23.260;2023-06-14T02:39:20;4.83;;;4.40;;
12784;SDS011;6456;42.680;23.260;2023-06-14T02:41:48;5.00;;;4.23;;
12784;SDS011;6456;42.680;23.260;2023-06-14T02:44:15;5.30;;;4.80;;
12784;SDS011;6456;42.680;23.260;2023-06-14T02:46:44;5.10;;;4.70;;
12784;SDS011;6456;42.680;23.260;2023-06-14T02:49:12;4.83;;;4.33;;
12784;SDS011;6456;42.680;23.260;2023-06-14T02:51:39;5.17;;;4.73;;
12784;SDS011;6456;42.680;23.260;2023-06-14T02:54:07;5.23;;;4.83;;
12784;SDS011;6456;42.680;23.260;2023-06-14T02:56:33;4.83;;;4.40;;
12784;SDS011;6456;42.680;23.260;2023-06-14T02:59:01;5.37;;;4.93;;
12784;SDS011;6456;42.680;23.260;2023-06-14T03:01:28;6.40;;;4.53;;
12784;SDS011;6456;42.680;23.260;2023-06-14T03:03:59;4.90;;;4.50;;
12784;SDS011;6456;42.680;23.260;2023-06-14T03:06:29;4.70;;;4.30;;
12784;SDS011;6456;42.680;23.260;2023-06-14T03:08:56;5.90;;;4.57;;
12784;SDS011;6456;42.680;23.260;2023-06-14T03:11:26;4.63;;;4.23;;
12784;SDS011;6456;42.680;23.260;2023-06-14T03:13:53;5.50;;;4.93;;
12784;SDS011;6456;42.680;23.260;2023-06-14T03:16:20;5.20;;;4.70;;
12784;SDS011;6456;42.680;23.260;2023-06-14T03:18:49;6.77;;;4.30;;
12784;SDS011;6456;42.680;23.260;2023-06-14T03:21:16;4.77;;;4.37;;
12784;SDS011;6456;42.680;23.260;2023-06-14T03:23:44;4.97;;;4.20;;
12784;SDS011;6456;42.680;23.260;2023-06-14T03:26:11;5.17;;;4.67;;
12784;SDS011;6456;42.680;23.260;2023-06-14T03:28:40;4.53;;;4.10;;
12784;SDS011;6456;42.680;23.260;2023-06-14T03:31:07;5.63;;;4.63;;
12784;SDS011;6456;42.680;23.260;2023-06-14T03:33:34;4.67;;;4.27;;
12784;SDS011;6456;42.680;23.260;2023-06-14T03:36:01;7.07;;;4.40;;
12784;SDS011;6456;42.680;23.260;2023-06-14T03:38:28;4.57;;;4.17;;
12784;SDS011;6456;42.680;23.260;2023-06-14T03:40:57;5.33;;;4.20;;
12784;SDS011;6456;42.680;23.260;2023-06-14T03:43:24;4.70;;;4.30;;
12784;SDS011;6456;42.680;23.260;2023-06-14T03:45:53;4.80;;;4.33;;
12784;SDS011;6456;42.680;23.260;2023-06-14T03:48:20;4.83;;;4.43;;
12784;SDS011;6456;42.680;23.260;2023-06-14T03:50:47;4.60;;;4.10;;
12784;SDS011;6456;42.680;23.260;2023-06-14T03:53:14;5.07;;;4.30;;
12784;SDS011;6456;42.680;23.260;2023-06-14T03:55:40;4.90;;;4.33;;
12784;SDS011;6456;42.680;23.260;2023-06-14T03:58:09;4.60;;;4.20;;
12784;SDS011;6456;42.680;23.260;2023-06-14T04:00:36;5.00;;;4.60;;
12784;SDS011;6456;42.680;23.260;2023-06-14T04:03:03;5.63;;;4.57;;
12784;SDS011;6456;42.680;23.260;2023-06-14T04:05:30;4.90;;;4.50;;
12784;SDS011;6456;42.680;23.260;2023-06-14T04:07:57;4.93;;;4.53;;
12784;SDS011;6456;42.680;23.260;2023-06-14T04:10:25;4.90;;;4.37;;
12784;SDS011;6456;42.680;23.260;2023-06-14T04:12:53;4.50;;;4.10;;
12784;SDS011;6456;42.680;23.260;2023-06-14T04:15:21;4.50;;;3.90;;
12784;SDS011;6456;42.680;23.260;2023-06-14T04:17:48;4.77;;;4.33;;
12784;SDS011;6456;42.680;23.260;2023-06-14T04:20:15;4.43;;;4.03;;
12784;SDS011;6456;42.680;23.260;2023-06-14T04:22:43;4.30;;;3.90;;
12784;SDS011;6456;42.680;23.260;2023-06-14T04:25:10;4.67;;;4.20;;
12784;SDS011;6456;42.680;23.260;2023-06-14T04:27:37;4.80;;;4.40;;
12784;SDS011;6456;42.680;23.260;2023-06-14T04:30:05;5.97;;;5.37;;
12784;SDS011;6456;42.680;23.260;2023-06-14T04:32:35;5.40;;;4.67;;
12784;SDS011;6456;42.680;23.260;2023-06-14T04:35:07;5.60;;;5.20;;
12784;SDS011;6456;42.680;23.260;2023-06-14T04:37:36;5.07;;;4.67;;
12784;SDS011;6456;42.680;23.260;2023-06-14T04:40:07;5.87;;;5.27;;
12784;SDS011;6456;42.680;23.260;2023-06-14T04:42:37;5.93;;;5.37;;
12784;SDS011;6456;42.680;23.260;2023-06-14T04:45:06;5.57;;;5.07;;
12784;SDS011;6456;42.680;23.260;2023-06-14T04:47:35;5.93;;;5.43;;
12784;SDS011;6456;42.680;23.260;2023-06-14T04:50:02;6.17;;;5.67;;
12784;SDS011;6456;42.680;23.260;2023-06-14T04:52:30;6.30;;;5.80;;
12784;SDS011;6456;42.680;23.260;2023-06-14T04:54:58;6.23;;;5.70;;
12784;SDS011;6456;42.680;23.260;2023-06-14T04:57:25;6.07;;;5.57;;
12784;SDS011;6456;42.680;23.260;2023-06-14T04:59:51;6.73;;;5.67;;
12784;SDS011;6456;42.680;23.260;2023-06-14T05:02:20;6.93;;;6.23;;
12784;SDS011;6456;42.680;23.260;2023-06-14T05:04:49;5.90;;;5.40;;
12784;SDS011;6456;42.680;23.260;2023-06-14T05:07:17;6.23;;;5.63;;
12784;SDS011;6456;42.680;23.260;2023-06-14T05:09:45;6.13;;;5.63;;
12784;SDS011;6456;42.680;23.260;2023-06-14T05:12:12;6.30;;;5.80;;
12784;SDS011;6456;42.680;23.260;2023-06-14T05:14:38;6.83;;;6.00;;
12784;SDS011;6456;42.680;23.260;2023-06-14T05:17:05;6.70;;;6.10;;
12784;SDS011;6456;42.680;23.260;2023-06-14T05:19:33;6.77;;;6.17;;
12784;SDS011;6456;42.680;23.260;2023-06-14T05:22:02;6.80;;;6.20;;
12784;SDS011;6456;42.680;23.260;2023-06-14T05:24:29;6.67;;;5.97;;
12784;SDS011;6456;42.680;23.260;2023-06-14T05:26:57;7.60;;;6.20;;
12784;SDS011;6456;42.680;23.260;2023-06-14T05:29:24;8.07;;;7.10;;
12784;SDS011;6456;42.680;23.260;2023-06-14T05:31:51;7.13;;;6.53;;
12784;SDS011;6456;42.680;23.260;2023-06-14T05:34:18;8.23;;;7.50;;
12784;SDS011;6456;42.680;23.260;2023-06-14T05:36:44;8.87;;;7.97;;
12784;SDS011;6456;42.680;23.260;2023-06-14T05:39:13;8.27;;;7.47;;
12784;SDS011;6456;42.680;23.260;2023-06-14T05:41:40;7.97;;;7.27;;
12784;SDS011;6456;42.680;23.260;2023-06-14T05:44:08;8.47;;;7.67;;
12784;SDS011;6456;42.680;23.260;2023-06-14T05:46:35;9.17;;;8.20;;
12784;SDS011;6456;42.680;23.260;2023-06-14T05:49:05;9.20;;;8.30;;
12784;SDS011;6456;42.680;23.260;2023-06-14T05:51:32;8.20;;;7.50;;
12784;SDS011;6456;42.680;23.260;2023-06-14T05:53:59;8.67;;;7.77;;
12784;SDS011;6456;42.680;23.260;2023-06-14T05:56:27;8.37;;;7.50;;
12784;SDS011;6456;42.680;23.260;2023-06-14T05:58:54;7.10;;;6.40;;
12784;SDS011;6456;42.680;23.260;2023-06-14T06:01:21;7.80;;;7.00;;
12784;SDS011;6456;42.680;23.260;2023-06-14T06:03:48;6.87;;;6.27;;
12784;SDS011;6456;42.680;23.260;2023-06-14T06:06:15;7.17;;;6.40;;
12784;SDS011;6456;42.680;23.260;2023-06-14T06:08:42;15.50;;;7.60;;
12784;SDS011;6456;42.680;23.260;2023-06-14T06:11:09;8.53;;;7.70;;
12784;SDS011;6456;42.680;23.260;2023-06-14T06:13:38;7.63;;;6.50;;
12784;SDS011;6456;42.680;23.260;2023-06-14T06:16:06;8.07;;;7.30;;
12784;SDS011;6456;42.680;23.260;2023-06-14T06:18:32;7.80;;;7.00;;
12784;SDS011;6456;42.680;23.260;2023-06-14T06:20:59;7.37;;;6.73;;
12784;SDS011;6456;42.680;23.260;2023-06-14T06:23:29;7.40;;;6.70;;
12784;SDS011;6456;42.680;23.260;2023-06-14T06:25:55;9.33;;;8.20;;
12784;SDS011;6456;42.680;23.260;2023-06-14T06:28:22;8.47;;;7.57;;
12784;SDS011;6456;42.680;23.260;2023-06-14T06:30:50;8.57;;;7.70;;
12784;SDS011;6456;42.680;23.260;2023-06-14T06:33:18;8.53;;;7.73;;
12784;SDS011;6456;42.680;23.260;2023-06-14T06:35:45;9.10;;;8.17;;
12784;SDS011;6456;42.680;23.260;2023-06-14T06:38:12;8.40;;;7.50;;
12784;SDS011;6456;42.680;23.260;2023-06-14T06:40:39;9.97;;;7.63;;
12784;SDS011;6456;42.680;23.260;2023-06-14T06:43:06;7.67;;;6.97;;
12784;SDS011;6456;42.680;23.260;2023-06-14T06:45:33;8.97;;;7.50;;
12784;SDS011;6456;42.680;23.260;2023-06-14T06:48:01;7.90;;;7.20;;
12784;SDS011;6456;42.680;23.260;2023-06-14T06:50:28;8.50;;;7.53;;
12784;SDS011;6456;42.680;23.260;2023-06-14T06:52:55;7.87;;;7.07;;
12784;SDS011;6456;42.680;23.260;2023-06-14T06:55:22;8.55;;;7.28;;
12784;SDS011;6456;42.680;23.260;2023-06-14T06:57:49;11.07;;;7.72;;
12784;SDS011;6456;42.680;23.260;2023-06-14T07:00:17;11.25;;;7.93;;
12784;SDS011;6456;42.680;23.260;2023-06-14T07:02:45;10.80;;;8.85;;
12784;SDS011;6456;42.680;23.260;2023-06-14T07:05:15;14.68;;;8.43;;
12784;SDS011;6456;42.680;23.260;2023-06-14T07:07:41;10.98;;;8.82;;
12784;SDS011;6456;42.680;23.260;2023-06-14T07:10:08;9.70;;;8.70;;
12784;SDS011;6456;42.680;23.260;2023-06-14T07:12:35;13.02;;;9.13;;
12784;SDS011;6456;42.680;23.260;2023-06-14T07:15:05;10.82;;;9.75;;
12784;SDS011;6456;42.680;23.260;2023-06-14T07:17:33;10.98;;;8.98;;
12784;SDS011;6456;42.680;23.260;2023-06-14T07:20:00;12.20;;;9.40;;
12784;SDS011;6456;42.680;23.260;2023-06-14T07:22:38;10.80;;;9.80;;
12784;SDS011;6456;42.680;23.260;2023-06-14T07:25:07;11.30;;;9.20;;
12784;SDS011;6456;42.680;23.260;2023-06-14T07:27:34;12.45;;;9.27;;
12784;SDS011;6456;42.680;23.260;2023-06-14T07:30:01;10.85;;;9.77;;
12784;SDS011;6456;42.680;23.260;2023-06-14T07:32:28;10.88;;;9.48;;
12784;SDS011;6456;42.680;23.260;2023-06-14T07:34:55;13.57;;;9.98;;
12784;SDS011;6456;42.680;23.260;2023-06-14T07:37:22;17.20;;;10.10;;
12784;SDS011;6456;42.680;23.260;2023-06-14T07:39:50;18.85;;;9.70;;
12784;SDS011;6456;42.680;23.260;2023-06-14T07:42:17;10.65;;;9.55;;
12784;SDS011;6456;42.680;23.260;2023-06-14T07:44:47;14.85;;;10.00;;
12784;SDS011;6456;42.680;23.260;2023-06-14T07:47:16;16.50;;;10.10;;
12784;SDS011;6456;42.680;23.260;2023-06-14T07:49:42;10.75;;;9.65;;
12784;SDS011;6456;42.680;23.260;2023-06-14T07:52:09;11.57;;;10.32;;
12784;SDS011;6456;42.680;23.260;2023-06-14T07:54:36;16.60;;;10.40;;
12784;SDS011;6456;42.680;23.260;2023-06-14T07:57:05;14.32;;;10.05;;
12784;SDS011;6456;42.680;23.260;2023-06-14T07:59:32;13.52;;;10.95;;
12784;SDS011;6456;42.680;23.260;2023-06-14T08:01:59;14.82;;;10.38;;
12784;SDS011;6456;42.680;23.260;2023-06-14T08:04:26;11.13;;;10.05;;
12784;SDS011;6456;42.680;23.260;2023-06-14T08:06:53;13.32;;;10.55;;
12784;SDS011;6456;42.680;23.260;2023-06-14T08:09:20;12.93;;;9.95;;
12784;SDS011;6456;42.680;23.260;2023-06-14T08:11:47;15.60;;;11.18;;
12784;SDS011;6456;42.680;23.260;2023-06-14T08:14:15;23.33;;;10.98;;
12784;SDS011;6456;42.680;23.260;2023-06-14T08:16:42;15.45;;;11.50;;
12784;SDS011;6456;42.680;23.260;2023-06-14T08:19:09;18.35;;;10.52;;
12784;SDS011;6456;42.680;23.260;2023-06-14T08:21:36;14.02;;;9.85;;
12784;SDS011;6456;42.680;23.260;2023-06-14T08:24:04;17.08;;;9.98;;
12784;SDS011;6456;42.680;23.260;2023-06-14T08:26:31;16.98;;;10.35;;
12784;SDS011;6456;42.680;23.260;2023-06-14T08:28:58;12.57;;;10.30;;
12784;SDS011;6456;42.680;23.260;2023-06-14T08:31:26;12.98;;;10.68;;
12784;SDS011;6456;42.680;23.260;2023-06-14T08:33:53;14.82;;;10.48;;
12784;SDS011;6456;42.680;23.260;2023-06-14T08:36:20;10.25;;;8.95;;
12784;SDS011;6456;42.680;23.260;2023-06-14T08:38:48;10.32;;;9.30;;
12784;SDS011;6456;42.680;23.260;2023-06-14T08:41:17;12.55;;;10.70;;
12784;SDS011;6456;42.680;23.260;2023-06-14T08:43:47;12.02;;;10.85;;
12784;SDS011;6456;42.680;23.260;2023-06-14T08:46:14;10.73;;;9.63;;
12784;SDS011;6456;42.680;23.260;2023-06-14T08:48:46;14.02;;;10.15;;
12784;SDS011;6456;42.680;23.260;2023-06-14T08:51:16;12.05;;;10.07;;
12784;SDS011;6456;42.680;23.260;2023-06-14T08:53:48;15.15;;;10.10;;
12784;SDS011;6456;42.680;23.260;2023-06-14T08:56:18;10.77;;;9.50;;
12784;SDS011;6456;42.680;23.260;2023-06-14T08:58:47;10.65;;;9.20;;
12784;SDS011;6456;42.680;23.260;2023-06-14T09:01:15;11.57;;;8.63;;
12784;SDS011;6456;42.680;23.260;2023-06-14T09:03:42;15.02;;;8.88;;
12784;SDS011;6456;42.680;23.260;2023-06-14T09:06:14;13.23;;;9.50;;
12784;SDS011;6456;42.680;23.260;2023-06-14T09:08:44;9.95;;;9.05;;
12784;SDS011;6456;42.680;23.260;2023-06-14T09:11:12;13.88;;;9.88;;
12784;SDS011;6456;42.680;23.260;2023-06-14T09:13:41;12.40;;;10.73;;
12784;SDS011;6456;42.680;23.260;2023-06-14T09:16:08;16.63;;;10.85;;
12784;SDS011;6456;42.680;23.260;2023-06-14T09:18:35;13.15;;;10.05;;
12784;SDS011;6456;42.680;23.260;2023-06-14T09:21:03;10.93;;;9.82;;
12784;SDS011;6456;42.680;23.260;2023-06-14T09:23:34;11.75;;;9.77;;
12784;SDS011;6456;42.680;23.260;2023-06-14T09:26:06;13.13;;;10.35;;
12784;SDS011;6456;42.680;23.260;2023-06-14T09:28:35;10.55;;;8.75;;
12784;SDS011;6456;42.680;23.260;2023-06-14T09:31:02;10.77;;;8.25;;
12784;SDS011;6456;42.680;23.260;2023-06-14T09:33:30;11.98;;;9.20;;
12784;SDS011;6456;42.680;23.260;2023-06-14T09:35:58;12.75;;;8.35;;
12784;SDS011;6456;42.680;23.260;2023-06-14T09:38:25;16.85;;;10.02;;
12784;SDS011;6456;42.680;23.260;2023-06-14T09:40:53;10.32;;;8.82;;
12784;SDS011;6456;42.680;23.260;2023-06-14T09:43:25;13.30;;;9.50;;
12784;SDS011;6456;42.680;23.260;2023-06-14T09:45:53;9.63;;;8.68;;
12784;SDS011;6456;42.680;23.260;2023-06-14T09:48:20;9.38;;;8.48;;
12784;SDS011;6456;42.680;23.260;2023-06-14T09:50:47;10.25;;;9.25;;
12784;SDS011;6456;42.680;23.260;2023-06-14T09:53:17;9.98;;;9.07;;
12784;SDS011;6456;42.680;23.260;2023-06-14T09:55:49;9.68;;;8.88;;
12784;SDS011;6456;42.680;23.260;2023-06-14T09:58:20;13.50;;;9.68;;
12784;SDS011;6456;42.680;23.260;2023-06-14T10:00:49;13.65;;;9.90;;
12784;SDS011;6456;42.680;23.260;2023-06-14T10:03:20;12.32;;;9.45;;
12784;SDS011;6456;42.680;23.260;2023-06-14T10:05:51;12.63;;;9.05;;
12784;SDS011;6456;42.680;23.260;2023-06-14T10:08:19;11.63;;;9.70;;
12784;SDS011;6456;42.680;23.260;2023-06-14T10:10:52;13.90;;;10.10;;
12784;SDS011;6456;42.680;23.260;2023-06-14T10:13:21;11.75;;;9.48;;
12784;SDS011;6456;42.680;23.260;2023-06-14T10:15:51;16.10;;;10.23;;
12784;SDS011;6456;42.680;23.260;2023-06-14T10:18:30;10.43;;;9.50;;
12784;SDS011;6456;42.680;23.260;2023-06-14T10:21:13;12.18;;;10.18;;
12784;SDS011;6456;42.680;23.260;2023-06-14T10:23:48;15.15;;;12.32;;
12784;SDS011;6456;42.680;23.260;2023-06-14T10:26:20;11.48;;;10.35;;
12784;SDS011;6456;42.680;23.260;2023-06-14T10:28:58;13.05;;;9.15;;
12784;SDS011;6456;42.680;23.260;2023-06-14T10:34:12;13.25;;;9.38;;
12784;SDS011;6456;42.680;23.260;2023-06-14T10:36:41;21.58;;;10.82;;
12784;SDS011;6456;42.680;23.260;2023-06-14T10:39:10;10.93;;;9.82;;
12784;SDS011;6456;42.680;23.260;2023-06-14T10:41:42;12.90;;;10.35;;
12784;SDS011;6456;42.680;23.260;2023-06-14T10:44:32;16.85;;;10.98;;
12784;SDS011;6456;42.680;23.260;2023-06-14T10:47:00;12.63;;;10.55;;
12784;SDS011;6456;42.680;23.260;2023-06-14T10:49:37;15.07;;;10.05;;
12784;SDS011;6456;42.680;23.260;2023-06-14T10:52:10;11.70;;;10.20;;
12784;SDS011;6456;42.680;23.260;2023-06-14T10:57:31;14.95;;;10.20;;
12784;SDS011;6456;42.680;23.260;2023-06-14T11:00:00;13.50;;;9.02;;
12784;SDS011;6456;42.680;23.260;2023-06-14T11:02:46;10.70;;;9.52;;
12784;SDS011;6456;42.680;23.260;2023-06-14T11:05:41;10.90;;;9.82;;
12784;SDS011;6456;42.680;23.260;2023-06-14T11:08:22;13.02;;;8.77;;
12784;SDS011;6456;42.680;23.260;2023-06-14T11:10:59;11.93;;;9.57;;
12784;SDS011;6456;42.680;23.260;2023-06-14T11:13:26;28.02;;;11.38;;
12784;SDS011;6456;42.680;23.260;2023-06-14T11:15:55;11.93;;;10.20;;
12784;SDS011;6456;42.680;23.260;2023-06-14T11:18:23;11.48;;;9.88;;
12784;SDS011;6456;42.680;23.260;2023-06-14T11:20:52;10.88;;;9.40;;
12784;SDS011;6456;42.680;23.260;2023-06-14T11:23:21;15.98;;;9.93;;
12784;SDS011;6456;42.680;23.260;2023-06-14T11:25:52;10.57;;;9.02;;
12784;SDS011;6456;42.680;23.260;2023-06-14T11:28:19;28.05;;;10.88;;
12784;SDS011;6456;42.680;23.260;2023-06-14T11:30:47;25.05;;;10.55;;
12784;SDS011;6456;42.680;23.260;2023-06-14T11:33:17;13.05;;;8.98;;
12784;SDS011;6456;42.680;23.260;2023-06-14T11:35:45;11.15;;;9.00;;
12784;SDS011;6456;42.680;23.260;2023-06-14T11:38:11;9.65;;;8.73;;
12784;SDS011;6456;42.680;23.260;2023-06-14T11:40:41;11.43;;;8.93;;
12784;SDS011;6456;42.680;23.260;2023-06-14T11:43:11;19.50;;;9.68;;
12784;SDS011;6456;42.680;23.260;2023-06-14T11:45:40;9.70;;;8.70;;
12784;SDS011;6456;42.680;23.260;2023-06-14T11:48:07;9.35;;;8.48;;
12784;SDS011;6456;42.680;23.260;2023-06-14T11:50:37;10.85;;;8.60;;
12784;SDS011;6456;42.680;23.260;2023-06-14T11:53:05;14.60;;;8.25;;
12784;SDS011;6456;42.680;23.260;2023-06-14T11:55:35;25.08;;;9.70;;
12784;SDS011;6456;42.680;23.260;2023-06-14T11:58:13;12.52;;;8.52;;
12784;SDS011;6456;42.680;23.260;2023-06-14T12:00:41;18.70;;;8.18;;
12784;SDS011;6456;42.680;23.260;2023-06-14T12:03:08;13.48;;;8.23;;
12784;SDS011;6456;42.680;23.260;2023-06-14T12:05:38;13.38;;;8.05;;
12784;SDS011;6456;42.680;23.260;2023-06-14T12:08:05;9.38;;;7.50;;
12784;SDS011;6456;42.680;23.260;2023-06-14T12:10:39;16.05;;;8.32;;
12784;SDS011;6456;42.680;23.260;2023-06-14T12:13:08;8.93;;;8.02;;
12784;SDS011;6456;42.680;23.260;2023-06-14T12:15:36;11.48;;;7.50;;
12784;SDS011;6456;42.680;23.260;2023-06-14T12:18:04;8.63;;;7.30;;
12784;SDS011;6456;42.680;23.260;2023-06-14T12:20:33;10.95;;;7.65;;
12784;SDS011;6456;42.680;23.260;2023-06-14T12:23:03;9.70;;;7.05;;
12784;SDS011;6456;42.680;23.260;2023-06-14T12:25:31;22.02;;;7.22;;
12784;SDS011;6456;42.680;23.260;2023-06-14T12:28:00;11.95;;;7.68;;
12784;SDS011;6456;42.680;23.260;2023-06-14T12:30:35;17.98;;;7.63;;
12784;SDS011;6456;42.680;23.260;2023-06-14T12:36:02;13.80;;;6.88;;
12784;SDS011;6456;42.680;23.260;2023-06-14T12:38:32;14.10;;;7.75;;
12784;SDS011;6456;42.680;23.260;2023-06-14T12:40:59;8.27;;;6.35;;
12784;SDS011;6456;42.680;23.260;2023-06-14T12:43:29;32.17;;;8.20;;
12784;SDS011;6456;42.680;23.260;2023-06-14T12:46:01;11.13;;;6.57;;
12784;SDS011;6456;42.680;23.260;2023-06-14T12:48:28;9.00;;;5.97;;
12784;SDS011;6456;42.680;23.260;2023-06-14T12:51:08;21.48;;;7.70;;
12784;SDS011;6456;42.680;23.260;2023-06-14T12:53:51;10.40;;;6.32;;
12784;SDS011;6456;42.680;23.260;2023-06-14T12:56:46;8.27;;;5.55;;
12784;SDS011;6456;42.680;23.260;2023-06-14T12:59:17;7.18;;;5.43;;
12784;SDS011;6456;42.680;23.260;2023-06-14T13:01:44;6.22;;;5.63;;
12784;SDS011;6456;42.680;23.260;2023-06-14T13:04:17;9.02;;;5.93;;
12784;SDS011;6456;42.680;23.260;2023-06-14T13:07:01;5.70;;;5.20;;
12784;SDS011;6456;42.680;23.260;2023-06-14T13:09:32;11.27;;;5.93;;
12784;SDS011;6456;42.680;23.260;2023-06-14T13:12:05;6.53;;;5.75;;
12784;SDS011;6456;42.680;23.260;2023-06-14T13:14:33;7.93;;;6.20;;
12784;SDS011;6456;42.680;23.260;2023-06-14T13:17:02;7.22;;;5.70;;
12784;SDS011;6456;42.680;23.260;2023-06-14T13:19:29;23.70;;;6.57;;
12784;SDS011;6456;42.680;23.260;2023-06-14T13:21:58;10.98;;;5.90;;
12784;SDS011;6456;42.680;23.260;2023-06-14T13:24:25;13.63;;;6.65;;
12784;SDS011;6456;42.680;23.260;2023-06-14T13:27:00;8.93;;;5.60;;
12784;SDS011;6456;42.680;23.260;2023-06-14T13:29:27;13.10;;;6.10;;
12784;SDS011;6456;42.680;23.260;2023-06-14T13:31:58;12.50;;;5.50;;
12784;SDS011;6456;42.680;23.260;2023-06-14T13:34:28;7.53;;;5.63;;
12784;SDS011;6456;42.680;23.260;2023-06-14T13:36:55;6.90;;;4.90;;
12784;SDS011;6456;42.680;23.260;2023-06-14T13:39:24;6.50;;;4.70;;
12784;SDS011;6456;42.680;23.260;2023-06-14T13:41:50;7.10;;;5.03;;
12784;SDS011;6456;42.680;23.260;2023-06-14T13:44:24;7.40;;;5.50;;
12784;SDS011;6456;42.680;23.260;2023-06-14T13:46:51;9.90;;;5.68;;
12784;SDS011;6456;42.680;23.260;2023-06-14T13:49:18;7.82;;;5.70;;
12784;SDS011;6456;42.680;23.260;2023-06-14T13:51:45;6.97;;;5.40;;
12784;SDS011;6456;42.680;23.260;2023-06-14T13:54:14;6.13;;;5.60;;
12784;SDS011;6456;42.680;23.260;2023-06-14T13:56:41;6.05;;;5.53;;
12784;SDS011;6456;42.680;23.260;2023-06-14T13:59:08;7.95;;;6.38;;
12784;SDS011;6456;42.680;23.260;2023-06-14T14:01:37;7.10;;;5.78;;
12784;SDS011;6456;42.680;23.260;2023-06-14T14:06:49;7.57;;;6.43;;
12784;SDS011;6456;42.680;23.260;2023-06-14T14:09:16;6.82;;;5.97;;
12784;SDS011;6456;42.680;23.260;2023-06-14T14:11:43;6.95;;;5.93;;
12784;SDS011;6456;42.680;23.260;2023-06-14T14:14:10;6.72;;;6.05;;
12784;SDS011;6456;42.680;23.260;2023-06-14T14:16:41;6.28;;;5.78;;
12784;SDS011;6456;42.680;23.260;2023-06-14T14:19:08;5.93;;;5.30;;
12784;SDS011;6456;42.680;23.260;2023-06-14T14:21:34;6.18;;;5.68;;
12784;SDS011;6456;42.680;23.260;2023-06-14T14:24:01;7.38;;;6.68;;
12784;SDS011;6456;42.680;23.260;2023-06-14T14:26:28;7.53;;;6.38;;
12784;SDS011;6456;42.680;23.260;2023-06-14T14:28:55;7.53;;;6.68;;
12784;SDS011;6456;42.680;23.260;2023-06-14T14:31:22;7.40;;;6.70;;
12784;SDS011;6456;42.680;23.260;2023-06-14T14:33:50;7.40;;;6.00;;
12784;SDS011;6456;42.680;23.260;2023-06-14T14:36:17;7.60;;;6.65;;
12784;SDS011;6456;42.680;23.260;2023-06-14T14:38:44;7.93;;;7.13;;
12784;SDS011;6456;42.680;23.260;2023-06-14T14:41:12;10.18;;;7.28;;
12784;SDS011;6456;42.680;23.260;2023-06-14T14:43:39;7.55;;;6.85;;
12784;SDS011;6456;42.680;23.260;2023-06-14T14:46:06;9.05;;;6.30;;
12784;SDS011;6456;42.680;23.260;2023-06-14T14:48:33;7.22;;;5.82;;
12784;SDS011;6456;42.680;23.260;2023-06-14T14:51:01;5.55;;;5.03;;
12784;SDS011;6456;42.680;23.260;2023-06-14T14:53:28;6.00;;;5.40;;
12784;SDS011;6456;42.680;23.260;2023-06-14T14:55:55;6.50;;;5.50;;
12784;SDS011;6456;42.680;23.260;2023-06-14T14:58:22;11.30;;;8.07;;
12784;SDS011;6456;42.680;23.260;2023-06-14T15:00:49;13.80;;;8.75;;